KHKS/HKS METAR and TAF weather

Enter ICAO airport designator
Station Type Date Time Source
KHKS METAR 2021/07/24 18:53 UTC NOAA

KHKS 241853Z 31004KT 10SM SCT040 BKN055 33/24 A3005 RMK AO2 SLP168 T03280244


Station Type Date Time Source
KHKS Decoded METAR 2021/07/24 18:53 UTC NOAA

HAWKINS FIELD, MS, United States (KHKS) 32-20N 090-13W 108M
Jul 24, 2021 - 02:53 PM EDT / 2021.07.24 1853 UTC
Wind: from the NW (310 degrees) at 5 MPH (4 KT):0
Visibility: 10 mile(s):0
Sky conditions: mostly cloudy
Temperature: 91.0 F (32.8 C)
Heat index: 102.7 F (39.3 C):1
Dew Point: 75.9 F (24.4 C)
Relative Humidity: 61%
Pressure (altimeter): 30.05 in. Hg (1017 hPa)
ob: KHKS 241853Z 31004KT 10SM SCT040 BKN055 33/24 A3005 RMK AO2 SLP168 T03280244
cycle: 19

Station Type Date Time Source
KHKS TAF 2021/07/24 18:24 UTC NOAA

TAF KHKS 241722Z 2418/2518 00000KT P6SM VCSH SCT030 BKN080
FM242100 34007KT P6SM VCTS BKN050CB
FM242300 29005KT P6SM BKN250
FM250600 18001KT 5SM BR SKC
FM251300 27005KT P6SM SCT250

Example: see airport list